createdAt,value
2022-09-09T00:02:22.608Z,10.58
2022-09-09T00:05:01.350Z,10.49
2022-09-09T00:07:42.147Z,10.79
2022-09-09T00:10:20.270Z,11.07
2022-09-09T00:12:57.508Z,11.15
2022-09-09T00:15:29.811Z,11.20
2022-09-09T00:18:05.698Z,11.28
2022-09-09T00:20:42.806Z,11.35
2022-09-09T00:23:16.617Z,11.42
2022-09-09T00:25:52.550Z,11.22
2022-09-09T00:28:22.325Z,11.52
2022-09-09T00:30:50.359Z,11.58
2022-09-09T00:33:22.448Z,11.63
2022-09-09T00:35:55.386Z,11.35
2022-09-09T00:38:30.411Z,11.47
2022-09-09T00:41:03.804Z,11.77
2022-09-09T00:43:33.237Z,11.62
2022-09-09T00:46:22.187Z,11.71
2022-09-09T00:48:59.566Z,11.86
2022-09-09T00:51:38.869Z,11.92
2022-09-09T00:54:20.901Z,11.74
2022-09-09T00:56:59.234Z,11.90
2022-09-09T00:59:37.772Z,11.80
2022-09-09T01:02:15.888Z,11.97
2022-09-09T01:04:45.612Z,12.14
2022-09-09T01:07:19.166Z,12.18
2022-09-09T01:09:59.323Z,11.90
2022-09-09T01:12:37.768Z,12.14
2022-09-09T01:15:13.047Z,12.21
2022-09-09T01:17:50.963Z,12.36
2022-09-09T01:20:23.641Z,12.39
2022-09-09T01:23:06.769Z,12.26
2022-09-09T01:26:15.709Z,12.39
2022-09-09T01:28:46.934Z,12.12
2022-09-09T01:31:19.873Z,12.48
2022-09-09T01:33:48.227Z,12.38
2022-09-09T01:36:24.173Z,12.51
2022-09-09T01:38:52.108Z,12.54
2022-09-09T01:41:21.730Z,12.56
2022-09-09T01:43:50.478Z,12.24
2022-09-09T01:46:19.522Z,12.61
2022-09-09T01:48:47.781Z,12.52
2022-09-09T01:51:15.721Z,12.65
2022-09-09T01:53:45.625Z,12.65
2022-09-09T01:56:27.947Z,12.65
2022-09-09T01:59:08.676Z,12.67
2022-09-09T02:01:53.182Z,12.37
2022-09-09T02:04:33.781Z,12.71
2022-09-09T02:07:02.657Z,12.38
2022-09-09T02:09:32.724Z,12.42
2022-09-09T02:12:08.548Z,12.73
2022-09-09T02:14:41.769Z,12.25
2022-09-09T02:17:12.121Z,12.74
2022-09-09T02:19:46.354Z,12.76
2022-09-09T02:22:14.533Z,12.68
2022-09-09T02:24:43.161Z,12.73
2022-09-09T02:27:13.374Z,12.66
2022-09-09T02:29:43.773Z,12.81
2022-09-09T02:32:16.883Z,12.83
2022-09-09T02:34:50.071Z,12.85
2022-09-09T02:37:21.077Z,12.77
2022-09-09T02:39:49.158Z,12.89
2022-09-09T02:42:20.222Z,12.92
2022-09-09T02:44:48.281Z,12.93
2022-09-09T02:47:29.801Z,12.94
2022-09-09T02:50:08.146Z,12.95
2022-09-09T02:52:46.190Z,12.83
2022-09-09T02:55:22.483Z,12.97
2022-09-09T02:57:53.926Z,12.89
2022-09-09T03:00:26.549Z,13.02
2022-09-09T03:02:55.705Z,13.03
2022-09-09T03:05:23.709Z,13.05
2022-09-09T03:07:51.626Z,13.06
2022-09-09T03:10:20.506Z,13.07
2022-09-09T03:12:48.322Z,13.09
2022-09-09T03:15:17.881Z,13.07
2022-09-09T03:17:46.095Z,12.70
2022-09-09T03:20:13.966Z,13.11
2022-09-09T03:22:43.083Z,13.02
2022-09-09T03:25:11.261Z,13.11
2022-09-09T03:27:39.074Z,13.09
2022-09-09T03:30:08.064Z,12.96
2022-09-09T03:32:37.808Z,12.66
2022-09-09T03:35:06.349Z,12.83
2022-09-09T03:37:34.156Z,12.71
2022-09-09T03:40:02.200Z,13.01
2022-09-09T03:42:31.038Z,13.00
2022-09-09T03:45:00.418Z,12.99
2022-09-09T03:47:28.588Z,12.98
2022-09-09T03:49:57.869Z,12.50
2022-09-09T03:52:27.408Z,12.42
2022-09-09T03:54:57.769Z,12.83
2022-09-09T03:57:25.598Z,12.76
2022-09-09T03:59:53.419Z,13.01
2022-09-09T04:02:22.622Z,13.01
2022-09-09T04:04:50.507Z,13.02
2022-09-09T04:07:19.673Z,13.04
2022-09-09T04:09:47.639Z,12.97
2022-09-09T04:12:15.469Z,12.90
2022-09-09T04:14:43.295Z,13.15
2022-09-09T04:17:11.485Z,13.10
2022-09-09T04:19:39.320Z,13.20
2022-09-09T04:22:07.165Z,13.23
2022-09-09T04:24:36.965Z,13.27
2022-09-09T04:27:05.005Z,12.84
2022-09-09T04:29:32.831Z,13.31
2022-09-09T04:32:00.906Z,13.22
2022-09-09T04:34:29.417Z,13.29
2022-09-09T04:36:57.974Z,13.39
2022-09-09T04:39:26.145Z,13.41
2022-09-09T04:41:55.293Z,13.42
2022-09-09T04:44:23.131Z,13.43
2022-09-09T04:46:51.143Z,13.43
2022-09-09T04:49:18.950Z,13.33
2022-09-09T04:51:48.038Z,13.20
2022-09-09T04:54:16.504Z,13.47
2022-09-09T04:56:44.440Z,13.48
2022-09-09T04:59:13.593Z,13.50
2022-09-09T05:01:41.978Z,13.51
2022-09-09T05:04:10.010Z,13.53
2022-09-09T05:06:38.324Z,13.54
2022-09-09T05:09:06.358Z,13.57
2022-09-09T05:11:37.036Z,13.61
2022-09-09T05:14:04.974Z,13.63
2022-09-09T05:16:34.699Z,13.68
2022-09-09T05:19:04.261Z,13.70
2022-09-09T05:21:32.478Z,13.70
2022-09-09T05:24:01.697Z,13.79
2022-09-09T05:26:30.460Z,11.90
2022-09-09T05:29:00.096Z,13.88
2022-09-09T05:31:29.540Z,13.95
2022-09-09T05:34:00.000Z,13.69
2022-09-09T05:36:27.865Z,13.80
2022-09-09T05:38:55.901Z,14.01
2022-09-09T05:41:24.118Z,14.18
2022-09-09T05:43:52.027Z,14.20
2022-09-09T05:46:21.698Z,14.17
2022-09-09T05:48:51.699Z,13.91
2022-09-09T05:51:23.160Z,14.14
2022-09-09T05:53:51.998Z,13.90
2022-09-09T05:56:22.888Z,14.11
2022-09-09T05:58:52.892Z,13.97
2022-09-09T06:01:22.320Z,14.12
2022-09-09T06:03:51.796Z,13.89
2022-09-09T06:06:22.999Z,13.92
2022-09-09T06:08:53.975Z,14.11
2022-09-09T06:11:23.969Z,14.26
2022-09-09T06:13:54.877Z,14.30
2022-09-09T06:16:25.288Z,14.34
2022-09-09T06:18:55.292Z,14.35
2022-09-09T06:21:25.947Z,14.35
2022-09-09T06:23:56.737Z,14.34
2022-09-09T06:26:29.570Z,14.35
2022-09-09T06:28:58.990Z,14.34
2022-09-09T06:31:31.621Z,14.32
2022-09-09T06:34:00.971Z,14.31
2022-09-09T06:36:32.313Z,13.97
2022-09-09T06:39:00.856Z,14.29
2022-09-09T06:41:31.212Z,14.35
2022-09-09T06:43:59.501Z,14.28
2022-09-09T06:46:29.395Z,14.57
2022-09-09T06:48:58.488Z,14.79
2022-09-09T06:51:28.332Z,15.00
2022-09-09T06:53:59.510Z,15.08
2022-09-09T06:56:29.311Z,15.37
2022-09-09T06:58:59.494Z,15.83
2022-09-09T07:01:29.225Z,15.88
2022-09-09T07:03:59.869Z,16.28
2022-09-09T07:06:29.100Z,16.66
2022-09-09T07:09:00.092Z,17.02
2022-09-09T07:11:29.889Z,17.23
2022-09-09T07:14:00.006Z,17.06
2022-09-09T07:16:30.541Z,16.99
2022-09-09T07:18:58.899Z,17.37
2022-09-09T07:21:28.437Z,17.62
2022-09-09T07:23:58.483Z,17.77
2022-09-09T07:26:28.236Z,18.51
2022-09-09T07:28:58.196Z,18.74
2022-09-09T07:31:28.895Z,18.56
2022-09-09T07:33:56.760Z,18.13
2022-09-09T07:36:31.234Z,18.10
2022-09-09T07:39:04.263Z,18.01
2022-09-09T07:41:35.383Z,18.09
2022-09-09T07:44:07.706Z,18.28
2022-09-09T07:46:36.357Z,18.82
2022-09-09T07:49:04.752Z,19.24
2022-09-09T07:51:35.158Z,19.73
2022-09-09T07:54:06.592Z,20.14
2022-09-09T07:56:34.936Z,20.54
2022-09-09T07:59:05.279Z,20.54
2022-09-09T08:01:38.323Z,19.89
2022-09-09T08:04:08.299Z,18.98
2022-09-09T08:06:38.908Z,18.33
2022-09-09T08:09:10.219Z,17.94
2022-09-09T08:11:39.549Z,18.19
2022-09-09T08:14:08.442Z,18.15
2022-09-09T08:16:38.632Z,18.01
2022-09-09T08:19:08.468Z,17.63
2022-09-09T08:21:39.396Z,17.27
2022-09-09T08:24:12.738Z,17.00
2022-09-09T08:26:42.703Z,16.76
2022-09-09T08:29:12.601Z,16.82
2022-09-09T08:31:43.648Z,16.18
2022-09-09T08:34:11.849Z,17.00
2022-09-09T08:36:41.761Z,17.17
2022-09-09T08:39:12.861Z,18.07
2022-09-09T08:42:02.345Z,18.78
2022-09-09T08:44:45.570Z,18.74
2022-09-09T08:47:34.081Z,18.39
2022-09-09T08:50:18.705Z,18.17
2022-09-09T08:52:54.801Z,17.66
2022-09-09T08:55:29.986Z,17.77
2022-09-09T08:58:02.031Z,17.68
2022-09-09T09:00:37.748Z,17.65
2022-09-09T09:03:13.835Z,18.14
2022-09-09T09:05:50.109Z,18.91
2022-09-09T09:08:29.740Z,18.92
2022-09-09T09:11:01.532Z,18.16
2022-09-09T09:13:40.472Z,17.12
2022-09-09T09:16:21.598Z,18.50
2022-09-09T09:18:49.541Z,18.74
2022-09-09T09:21:22.745Z,18.69
2022-09-09T09:23:58.047Z,18.52
2022-09-09T09:26:34.203Z,18.13
2022-09-09T09:29:10.570Z,17.93
2022-09-09T09:31:38.698Z,17.76
2022-09-09T09:34:06.877Z,17.09
2022-09-09T09:36:43.626Z,18.95
2022-09-09T09:42:11.950Z,19.05
2022-09-09T09:44:40.006Z,19.07
2022-09-09T09:47:10.318Z,19.03
2022-09-09T09:49:38.520Z,18.98
2022-09-09T09:52:07.627Z,18.99
2022-09-09T09:54:39.881Z,19.14
2022-09-09T09:57:17.176Z,19.16
2022-09-09T09:59:45.623Z,18.41
2022-09-09T10:02:19.235Z,18.12
2022-09-09T10:04:47.878Z,18.72
2022-09-09T10:07:21.109Z,18.69
2022-09-09T10:09:55.355Z,18.94
2022-09-09T10:12:37.217Z,18.95
2022-09-09T10:15:17.071Z,18.69
2022-09-09T10:17:56.324Z,18.29
2022-09-09T10:20:36.937Z,18.65
2022-09-09T10:23:19.087Z,18.94
2022-09-09T10:26:02.333Z,19.18
2022-09-09T10:28:56.605Z,19.32
2022-09-09T10:31:32.109Z,20.14
2022-09-09T10:34:09.095Z,21.07
2022-09-09T10:36:45.112Z,21.52
2022-09-09T10:39:27.986Z,21.64
2022-09-09T10:42:06.205Z,21.76
2022-09-09T10:44:57.765Z,22.58
2022-09-09T10:47:50.582Z,22.50
2022-09-09T10:51:00.011Z,22.05
2022-09-09T10:53:34.743Z,21.21
2022-09-09T10:56:08.648Z,20.57
2022-09-09T10:58:43.863Z,20.63
2022-09-09T11:01:19.587Z,20.56
2022-09-09T11:03:54.128Z,20.77
2022-09-09T11:06:26.563Z,21.21
2022-09-09T11:08:57.048Z,21.68
2022-09-09T11:11:32.033Z,22.12
2022-09-09T11:14:04.647Z,22.65
2022-09-09T11:16:42.926Z,22.76
2022-09-09T11:19:19.160Z,21.75
2022-09-09T11:21:48.708Z,22.41
2022-09-09T11:24:20.691Z,22.35
2022-09-09T11:26:53.634Z,22.33
2022-09-09T11:29:48.813Z,22.76
2022-09-09T11:32:35.264Z,22.81
2022-09-09T11:35:19.788Z,23.03
2022-09-09T11:38:06.110Z,23.42
2022-09-09T11:40:36.137Z,23.18
2022-09-09T11:43:07.041Z,23.82
2022-09-09T11:45:37.788Z,23.38
2022-09-09T11:48:08.046Z,23.70
2022-09-09T11:50:37.778Z,23.98
2022-09-09T11:53:25.368Z,23.87
2022-09-09T11:56:08.177Z,23.91
2022-09-09T11:58:41.936Z,24.01
2022-09-09T12:01:32.140Z,24.17
2022-09-09T12:04:33.325Z,24.14
2022-09-09T12:07:04.789Z,23.94
2022-09-09T12:09:41.285Z,23.71
2022-09-09T12:12:24.234Z,24.14
2022-09-09T12:15:01.891Z,24.56
2022-09-09T12:17:32.505Z,24.43
2022-09-09T12:20:11.067Z,24.02
2022-09-09T12:22:55.761Z,23.40
2022-09-09T12:25:32.962Z,22.87
2022-09-09T12:28:08.912Z,23.11
2022-09-09T12:30:43.332Z,22.94
2022-09-09T12:33:15.086Z,23.08
2022-09-09T12:35:48.448Z,23.17
2022-09-09T12:38:20.834Z,23.12
2022-09-09T12:40:58.325Z,23.66
2022-09-09T12:43:28.511Z,24.56
2022-09-09T12:46:01.759Z,25.24
2022-09-09T12:48:36.027Z,26.00
2022-09-09T12:51:23.314Z,25.89
2022-09-09T12:53:51.451Z,26.36
2022-09-09T12:56:27.492Z,26.74
2022-09-09T12:58:57.596Z,26.18
2022-09-09T13:01:27.985Z,25.14
2022-09-09T13:03:56.790Z,24.76
2022-09-09T13:06:29.258Z,25.19
2022-09-09T13:09:00.004Z,24.79
2022-09-09T13:11:31.887Z,23.85
2022-09-09T13:14:01.501Z,23.43
2022-09-09T13:16:33.864Z,23.85
2022-09-09T13:19:09.631Z,23.42
2022-09-09T13:21:41.552Z,23.72
2022-09-09T13:24:30.506Z,24.71
2022-09-09T13:26:59.715Z,25.12
2022-09-09T13:29:27.665Z,24.42
2022-09-09T13:31:56.724Z,24.20
2022-09-09T13:34:32.562Z,25.22
2022-09-09T13:37:04.545Z,25.78
2022-09-09T13:39:32.645Z,25.82
2022-09-09T13:42:00.655Z,26.38
2022-09-09T13:44:30.824Z,26.25
2022-09-09T13:47:08.139Z,26.70
2022-09-09T13:49:38.296Z,27.32
2022-09-09T13:52:12.632Z,27.10
2022-09-09T13:54:40.731Z,26.77
2022-09-09T13:57:17.493Z,26.24
2022-09-09T14:00:03.600Z,26.48
2022-09-09T14:02:32.763Z,26.59
2022-09-09T14:05:00.651Z,25.90
2022-09-09T14:07:30.051Z,26.25
2022-09-09T14:09:58.311Z,25.82
2022-09-09T14:12:26.431Z,25.29
2022-09-09T14:14:54.289Z,25.42
2022-09-09T14:17:23.343Z,24.76
2022-09-09T14:19:51.581Z,25.04
2022-09-09T14:22:19.523Z,25.28
2022-09-09T14:24:49.261Z,24.48
2022-09-09T14:27:19.715Z,23.71
2022-09-09T14:29:47.535Z,22.79
2022-09-09T14:32:15.645Z,22.88
2022-09-09T14:34:43.505Z,23.54
2022-09-09T14:37:11.330Z,23.33
2022-09-09T14:39:39.358Z,23.70
2022-09-09T14:42:12.062Z,24.77
2022-09-09T14:44:40.366Z,25.26
2022-09-09T14:47:09.021Z,25.24
2022-09-09T14:49:37.429Z,25.61
2022-09-09T14:52:06.666Z,26.02
2022-09-09T14:54:34.587Z,26.07
2022-09-09T14:57:02.410Z,26.18
2022-09-09T14:59:31.853Z,26.61
2022-09-09T15:02:01.741Z,26.66
2022-09-09T15:04:29.713Z,27.06
2022-09-09T15:06:57.688Z,26.64
2022-09-09T15:09:25.494Z,25.54
2022-09-09T15:11:53.339Z,24.27
2022-09-09T15:14:22.585Z,24.00
2022-09-09T15:16:54.598Z,23.62
2022-09-09T15:19:22.610Z,22.70
2022-09-09T15:21:50.514Z,22.68
2022-09-09T15:24:18.331Z,22.19
2022-09-09T15:26:46.503Z,21.32
2022-09-09T15:29:14.656Z,20.51
2022-09-09T15:31:42.445Z,19.86
2022-09-09T15:34:12.237Z,19.22
2022-09-09T15:36:41.533Z,18.65
2022-09-09T15:39:13.826Z,18.38
2022-09-09T15:41:41.880Z,18.11
2022-09-09T15:44:11.333Z,17.83
2022-09-09T15:46:41.528Z,17.21
2022-09-09T15:49:12.283Z,17.28
2022-09-09T15:51:43.697Z,16.73
2022-09-09T15:54:14.332Z,16.97
2022-09-09T15:56:43.069Z,16.88
2022-09-09T15:59:12.383Z,16.75
2022-09-09T16:01:41.923Z,16.56
2022-09-09T16:04:11.549Z,16.47
2022-09-09T16:06:40.102Z,16.14
2022-09-09T16:09:11.303Z,16.05
2022-09-09T16:11:39.983Z,16.15
2022-09-09T16:14:08.475Z,16.01
2022-09-09T16:16:37.672Z,15.99
2022-09-09T16:19:08.105Z,15.20
2022-09-09T16:21:40.758Z,15.84
2022-09-09T16:24:10.920Z,15.98
2022-09-09T16:26:40.785Z,16.00
2022-09-09T16:29:09.869Z,15.97
2022-09-09T16:31:38.636Z,15.97
2022-09-09T16:34:06.745Z,16.00
2022-09-09T16:36:38.049Z,16.00
2022-09-09T16:39:07.713Z,15.99
2022-09-09T16:41:35.849Z,15.96
2022-09-09T16:44:05.635Z,15.85
2022-09-09T16:46:36.531Z,15.52
2022-09-09T16:49:06.502Z,15.66
2022-09-09T16:51:35.991Z,15.25
2022-09-09T16:54:08.310Z,15.44
2022-09-09T16:56:38.958Z,15.35
2022-09-09T16:59:08.793Z,15.26
2022-09-09T17:01:39.136Z,15.17
2022-09-09T17:04:10.136Z,15.04
2022-09-09T17:06:39.246Z,14.97
2022-09-09T17:09:10.845Z,14.88
2022-09-09T17:11:39.756Z,14.81
2022-09-09T17:14:10.458Z,14.74
2022-09-09T17:16:40.603Z,14.68
2022-09-09T17:19:10.457Z,14.60
2022-09-09T17:21:54.629Z,14.55
2022-09-09T17:24:30.156Z,14.49
2022-09-09T17:26:58.915Z,14.44
2022-09-09T17:29:26.814Z,14.38
2022-09-09T17:31:55.202Z,14.23
2022-09-09T17:34:23.872Z,14.18
2022-09-09T17:36:51.825Z,14.21
2022-09-09T17:39:19.781Z,14.13
2022-09-09T17:41:49.697Z,14.06
2022-09-09T17:44:18.017Z,13.92
2022-09-09T17:46:46.370Z,13.67
2022-09-09T17:49:16.894Z,13.89
2022-09-09T17:51:46.329Z,13.79
2022-09-09T17:54:16.440Z,13.77
2022-09-09T17:56:45.172Z,13.19
2022-09-09T17:59:17.638Z,13.69
2022-09-09T18:01:47.249Z,13.67
2022-09-09T18:04:17.000Z,13.62
2022-09-09T18:06:47.963Z,13.60
2022-09-09T18:09:18.206Z,13.37
2022-09-09T18:11:49.329Z,13.51
2022-09-09T18:14:21.711Z,13.45
2022-09-09T18:16:50.287Z,13.21
2022-09-09T18:19:20.608Z,13.33
2022-09-09T18:21:49.323Z,13.31
2022-09-09T18:24:19.370Z,13.25
2022-09-09T18:26:48.215Z,13.18
2022-09-09T18:29:20.247Z,13.22
2022-09-09T18:31:48.357Z,13.18
2022-09-09T18:34:18.217Z,13.15
2022-09-09T18:36:48.086Z,13.09
2022-09-09T18:39:17.696Z,13.04
2022-09-09T18:41:47.589Z,12.67
2022-09-09T18:44:20.832Z,12.85
2022-09-09T18:46:50.158Z,12.96
2022-09-09T18:49:18.009Z,12.84
2022-09-09T18:51:47.011Z,12.56
2022-09-09T18:54:16.622Z,12.84
2022-09-09T18:56:45.209Z,12.79
2022-09-09T18:59:16.104Z,12.73
2022-09-09T19:01:45.740Z,12.60
2022-09-09T19:04:13.845Z,12.62
2022-09-09T19:06:43.789Z,12.47
2022-09-09T19:09:12.452Z,12.65
2022-09-09T19:11:41.241Z,12.65
2022-09-09T19:14:12.400Z,12.60
2022-09-09T19:16:41.569Z,12.50
2022-09-09T19:19:14.645Z,12.55
2022-09-09T19:21:44.908Z,12.52
2022-09-09T19:24:16.286Z,12.53
2022-09-09T19:26:46.714Z,12.53
2022-09-09T19:29:16.342Z,12.51
2022-09-09T19:32:09.475Z,12.48
2022-09-09T19:34:35.093Z,12.44
2022-09-09T19:37:03.037Z,11.87
2022-09-09T19:39:32.120Z,12.38
2022-09-09T19:41:59.985Z,12.40
2022-09-09T19:44:27.997Z,12.41
2022-09-09T19:46:55.967Z,12.18
2022-09-09T19:49:24.101Z,12.29
2022-09-09T19:51:55.292Z,12.36
2022-09-09T19:54:23.105Z,12.18
2022-09-09T19:56:50.943Z,12.22
2022-09-09T19:59:19.027Z,12.28
2022-09-09T20:01:47.036Z,12.28
2022-09-09T20:04:17.339Z,12.05
2022-09-09T20:06:46.234Z,12.07
2022-09-09T20:09:17.528Z,11.99
2022-09-09T20:11:47.508Z,12.21
2022-09-09T20:14:16.191Z,12.25
2022-09-09T20:16:45.767Z,12.23
2022-09-09T20:19:16.252Z,12.21
2022-09-09T20:21:47.880Z,12.11
2022-09-09T20:24:19.805Z,11.87
2022-09-09T20:26:49.016Z,12.07
2022-09-09T20:29:19.115Z,12.06
2022-09-09T20:31:48.147Z,11.93
2022-09-09T20:34:18.609Z,11.99
2022-09-09T20:36:48.504Z,11.89
2022-09-09T20:39:20.108Z,11.96
2022-09-09T20:41:48.307Z,11.93
2022-09-09T20:44:18.434Z,11.88
2022-09-09T20:46:49.061Z,11.86
2022-09-09T20:49:18.418Z,11.81
2022-09-09T20:51:47.708Z,11.68
2022-09-09T20:54:19.719Z,11.66
2022-09-09T20:56:49.745Z,11.67
2022-09-09T20:59:19.822Z,11.59
2022-09-09T21:01:48.798Z,11.68
2022-09-09T21:04:18.700Z,11.68
2022-09-09T21:06:47.307Z,11.65
2022-09-09T21:09:15.681Z,11.69
2022-09-09T21:11:45.047Z,11.69
2022-09-09T21:14:13.142Z,11.68
2022-09-09T21:16:41.124Z,11.66
2022-09-09T21:19:09.544Z,11.66
2022-09-09T21:21:37.438Z,11.63
2022-09-09T21:24:06.050Z,11.60
2022-09-09T21:26:35.578Z,11.43
2022-09-09T21:29:04.885Z,11.47
2022-09-09T21:31:33.505Z,11.36
2022-09-09T21:34:01.661Z,11.46
2022-09-09T21:36:29.603Z,11.43
2022-09-09T21:38:59.359Z,11.19
2022-09-09T21:41:27.409Z,11.35
2022-09-09T21:43:56.469Z,11.29
2022-09-09T21:46:28.256Z,11.31
2022-09-09T21:48:57.165Z,11.09
2022-09-09T21:51:25.588Z,11.20
2022-09-09T21:53:56.674Z,11.23
2022-09-09T21:56:25.678Z,11.19
2022-09-09T21:58:56.913Z,11.14
2022-09-09T22:01:27.219Z,11.06
2022-09-09T22:03:55.145Z,10.85
2022-09-09T22:06:22.961Z,10.88
2022-09-09T22:08:51.058Z,10.95
2022-09-09T22:11:21.388Z,10.93
2022-09-09T22:13:49.527Z,10.93
2022-09-09T22:16:20.191Z,10.93
2022-09-09T22:18:53.560Z,10.87
2022-09-09T22:21:22.157Z,10.80
2022-09-09T22:23:54.209Z,10.87
2022-09-09T22:26:22.552Z,9.87
2022-09-09T22:28:50.937Z,10.82
2022-09-09T22:31:18.928Z,10.56
2022-09-09T22:33:46.887Z,10.76
2022-09-09T22:36:16.182Z,10.78
2022-09-09T22:38:43.970Z,10.80
2022-09-09T22:41:12.217Z,10.78
2022-09-09T22:43:43.666Z,10.64
2022-09-09T22:46:12.445Z,10.51
2022-09-09T22:48:43.661Z,10.77
2022-09-09T22:51:16.626Z,10.78
2022-09-09T22:53:46.878Z,10.75
2022-09-09T22:56:19.289Z,10.68
2022-09-09T22:58:56.933Z,10.76
2022-09-09T23:01:26.850Z,10.73
2022-09-09T23:03:55.707Z,10.58
2022-09-09T23:06:25.416Z,10.56
2022-09-09T23:08:56.921Z,10.61
2022-09-09T23:11:28.093Z,10.57
2022-09-09T23:14:00.294Z,10.50
2022-09-09T23:16:29.590Z,10.39
2022-09-09T23:18:57.497Z,10.49
2022-09-09T23:21:26.387Z,10.50
2022-09-09T23:23:57.554Z,10.50
2022-09-09T23:26:26.647Z,10.65
2022-09-09T23:28:58.474Z,10.47
2022-09-09T23:31:27.828Z,10.76
2022-09-09T23:33:58.122Z,10.55
2022-09-09T23:36:26.702Z,10.80
2022-09-09T23:38:56.325Z,10.31
2022-09-09T23:41:24.850Z,10.43
2022-09-09T23:43:54.298Z,10.64
2022-09-09T23:46:25.275Z,10.81
2022-09-09T23:48:53.205Z,10.74
2022-09-09T23:51:24.075Z,10.43
2022-09-09T23:53:53.917Z,10.82
2022-09-09T23:56:25.130Z,10.82
2022-09-09T23:58:53.211Z,10.78
